createdAt,value
2018-11-10T00:00:07.692Z,44.00
2018-11-10T00:02:40.401Z,37.50
2018-11-10T00:05:18.899Z,41.00
2018-11-10T00:08:01.325Z,43.00
2018-11-10T00:10:40.766Z,41.00
2018-11-10T00:13:16.843Z,41.00
2018-11-10T00:15:57.453Z,38.33
2018-11-10T00:18:41.851Z,38.50
2018-11-10T00:21:18.462Z,41.67
2018-11-10T00:23:49.483Z,42.67
2018-11-10T00:26:29.652Z,40.50
2018-11-10T00:29:17.294Z,42.75
2018-11-10T00:31:50.801Z,43.25
2018-11-10T00:34:32.299Z,37.00
2018-11-10T00:37:10.887Z,41.00
2018-11-10T00:39:46.686Z,38.33
2018-11-10T00:42:24.698Z,39.67
2018-11-10T00:45:02.809Z,40.33
2018-11-10T00:47:36.365Z,39.67
2018-11-10T00:50:10.013Z,37.33
2018-11-10T00:52:44.604Z,38.00
2018-11-10T00:55:18.972Z,38.25
2018-11-10T00:57:55.646Z,41.50
2018-11-10T01:00:35.673Z,39.25
2018-11-10T01:03:10.223Z,37.00
2018-11-10T01:05:47.599Z,38.00
2018-11-10T01:08:23.189Z,39.50
2018-11-10T01:11:00.745Z,42.33
2018-11-10T01:13:38.068Z,36.00
2018-11-10T01:16:11.208Z,34.00
2018-11-10T01:18:50.165Z,37.67
2018-11-10T01:21:30.088Z,39.00
2018-11-10T01:24:12.544Z,38.00
2018-11-10T01:29:29.999Z,35.75
2018-11-10T01:32:08.929Z,37.67
2018-11-10T01:34:41.036Z,34.33
2018-11-10T01:37:17.308Z,34.67
2018-11-10T01:39:50.747Z,35.33
2018-11-10T01:42:24.739Z,29.67
2018-11-10T01:44:57.436Z,37.33
2018-11-10T01:47:33.136Z,31.33
2018-11-10T01:50:11.559Z,35.50
2018-11-10T01:53:13.626Z,35.00
2018-11-10T01:55:46.217Z,41.00
2018-11-10T01:58:26.617Z,32.00
2018-11-10T02:00:59.057Z,35.67
2018-11-10T02:03:31.856Z,35.00
2018-11-10T02:06:05.864Z,34.50
2018-11-10T02:08:37.490Z,30.67
2018-11-10T02:11:10.833Z,33.00
2018-11-10T02:13:49.131Z,33.00
2018-11-10T02:16:30.253Z,40.33
2018-11-10T02:19:02.695Z,34.00
2018-11-10T02:21:35.372Z,39.67
2018-11-10T02:24:13.585Z,34.00
2018-11-10T02:26:50.164Z,27.33
2018-11-10T02:29:29.180Z,43.50
2018-11-10T02:32:03.452Z,31.67
2018-11-10T02:34:35.824Z,33.00
2018-11-10T02:37:08.260Z,32.00
2018-11-10T02:39:45.474Z,31.67
2018-11-10T02:42:28.775Z,29.33
2018-11-10T02:45:03.273Z,34.00
2018-11-10T02:47:39.685Z,32.33
2018-11-10T02:50:22.368Z,37.67
2018-11-10T02:52:57.610Z,28.67
2018-11-10T02:55:29.913Z,34.33
2018-11-10T02:58:04.269Z,32.33
2018-11-10T03:00:40.274Z,32.00
2018-11-10T03:03:16.098Z,29.33
2018-11-10T03:05:51.571Z,34.67
2018-11-10T03:08:24.525Z,33.00
2018-11-10T03:10:59.785Z,33.00
2018-11-10T03:13:34.527Z,31.33
2018-11-10T03:16:07.986Z,33.67
2018-11-10T03:18:44.084Z,32.33
2018-11-10T03:21:27.691Z,33.00
2018-11-10T03:24:00.720Z,32.33
2018-11-10T03:26:32.183Z,27.00
2018-11-10T03:29:05.448Z,34.67
2018-11-10T03:31:42.101Z,30.33
2018-11-10T03:34:13.361Z,31.33
2018-11-10T03:36:44.696Z,31.67
2018-11-10T03:39:21.696Z,31.67
2018-11-10T03:41:58.573Z,37.67
2018-11-10T03:44:36.111Z,33.00
2018-11-10T03:47:10.879Z,35.00
2018-11-10T03:49:46.769Z,33.00
2018-11-10T03:52:17.348Z,34.00
2018-11-10T03:54:49.141Z,34.00
2018-11-10T03:57:28.561Z,34.00
2018-11-10T04:00:04.840Z,35.67
2018-11-10T04:02:38.343Z,36.67
2018-11-10T04:05:15.109Z,30.00
2018-11-10T04:07:48.683Z,33.33
2018-11-10T04:10:30.735Z,34.25
2018-11-10T04:13:08.128Z,39.33
2018-11-10T04:15:47.032Z,36.50
2018-11-10T04:18:21.104Z,29.67
2018-11-10T04:20:54.764Z,33.67
2018-11-10T04:23:27.140Z,36.67
2018-11-10T04:25:59.061Z,33.33
2018-11-10T04:28:32.439Z,36.33
2018-11-10T04:31:09.948Z,32.33
2018-11-10T04:33:43.261Z,37.00
2018-11-10T04:36:19.526Z,26.67
2018-11-10T04:38:54.703Z,31.67
2018-11-10T04:41:28.320Z,39.00
2018-11-10T04:44:05.555Z,31.33
2018-11-10T04:46:38.361Z,31.67
2018-11-10T04:49:17.453Z,33.67
2018-11-10T04:51:50.199Z,37.00
2018-11-10T04:54:28.769Z,35.67
2018-11-10T04:57:03.925Z,34.67
2018-11-10T04:59:35.955Z,32.00
2018-11-10T05:02:10.632Z,37.00
2018-11-10T05:04:43.944Z,34.75
2018-11-10T05:07:18.949Z,38.67
2018-11-10T05:09:54.676Z,34.00
2018-11-10T05:12:28.503Z,36.00
2018-11-10T05:15:12.350Z,28.33
2018-11-10T05:17:46.599Z,35.25
2018-11-10T05:20:22.756Z,33.00
2018-11-10T05:22:57.920Z,35.00
2018-11-10T05:25:31.926Z,32.00
2018-11-10T05:28:08.507Z,33.00
2018-11-10T05:30:45.299Z,33.67
2018-11-10T05:33:18.293Z,32.67
2018-11-10T05:35:51.433Z,35.33
2018-11-10T05:38:26.134Z,33.00
2018-11-10T05:40:58.193Z,33.00
2018-11-10T05:43:31.209Z,35.67
2018-11-10T05:46:10.440Z,40.67
2018-11-10T05:48:44.678Z,36.00
2018-11-10T05:51:17.883Z,31.00
2018-11-10T05:53:51.117Z,31.00
2018-11-10T05:56:28.127Z,37.00
2018-11-10T05:59:01.625Z,32.67
2018-11-10T06:01:36.769Z,33.33
2018-11-10T06:04:11.359Z,34.67
2018-11-10T06:06:43.948Z,31.67
2018-11-10T06:09:18.608Z,37.33
2018-11-10T06:11:55.110Z,34.67
2018-11-10T06:14:27.921Z,32.67
2018-11-10T06:17:02.769Z,37.00
2018-11-10T06:19:45.777Z,37.00
2018-11-10T06:22:18.253Z,37.33
2018-11-10T06:24:52.760Z,35.33
2018-11-10T06:27:26.985Z,40.33
2018-11-10T06:30:03.904Z,33.67
2018-11-10T06:32:41.527Z,34.67
2018-11-10T06:35:20.441Z,33.00
2018-11-10T06:37:55.181Z,42.50
2018-11-10T06:40:29.457Z,40.00
2018-11-10T06:43:07.399Z,39.00
2018-11-10T06:45:44.226Z,35.67
2018-11-10T06:48:15.981Z,36.33
2018-11-10T06:50:53.424Z,40.25
2018-11-10T06:53:35.514Z,40.00
2018-11-10T06:56:11.764Z,37.33
2018-11-10T06:58:48.208Z,36.67
2018-11-10T07:01:26.513Z,36.33
2018-11-10T07:04:01.100Z,40.00
2018-11-10T07:06:35.316Z,48.33
2018-11-10T07:09:09.268Z,43.00
2018-11-10T07:11:48.742Z,40.00
2018-11-10T07:14:21.652Z,41.00
2018-11-10T07:16:58.886Z,42.00
2018-11-10T07:19:32.235Z,42.00
2018-11-10T07:22:12.431Z,39.00
2018-11-10T07:24:56.860Z,41.50
2018-11-10T07:27:31.838Z,37.67
2018-11-10T07:30:07.438Z,40.00
2018-11-10T07:32:55.478Z,36.00
2018-11-10T07:35:29.390Z,36.67
2018-11-10T07:38:12.128Z,32.33
2018-11-10T07:40:56.206Z,39.75
2018-11-10T07:43:30.065Z,43.33
2018-11-10T07:46:05.642Z,40.50
2018-11-10T07:48:42.636Z,35.67
2018-11-10T07:51:20.152Z,39.50
2018-11-10T07:53:56.080Z,28.33
2018-11-10T07:56:31.559Z,40.25
2018-11-10T07:59:05.895Z,38.00
2018-11-10T08:01:47.457Z,39.33
2018-11-10T08:04:29.340Z,36.00
2018-11-10T08:07:05.454Z,34.00
2018-11-10T08:09:48.573Z,40.75
2018-11-10T08:12:23.370Z,35.33
2018-11-10T08:14:57.679Z,34.00
2018-11-10T08:17:29.482Z,39.33
2018-11-10T08:20:04.720Z,35.33
2018-11-10T08:22:44.602Z,35.00
2018-11-10T08:25:22.179Z,32.67
2018-11-10T08:27:55.316Z,34.67
2018-11-10T08:30:33.252Z,30.33
2018-11-10T08:33:16.120Z,32.33
2018-11-10T08:35:54.081Z,31.67
2018-11-10T08:38:28.777Z,35.33
2018-11-10T08:41:05.786Z,43.33
2018-11-10T08:43:43.290Z,36.00
2018-11-10T08:46:21.139Z,39.00
2018-11-10T08:49:01.683Z,34.25
2018-11-10T08:51:42.827Z,30.33
2018-11-10T08:54:16.661Z,35.75
2018-11-10T08:56:52.268Z,35.67
2018-11-10T08:59:28.509Z,32.00
2018-11-10T09:02:02.043Z,36.67
2018-11-10T09:04:35.419Z,34.33
2018-11-10T09:07:08.320Z,38.67
2018-11-10T09:09:42.828Z,32.00
2018-11-10T09:12:19.702Z,38.33
2018-11-10T09:14:58.661Z,33.00
2018-11-10T09:17:36.420Z,33.00
2018-11-10T09:20:18.727Z,32.33
2018-11-10T09:22:51.493Z,32.67
2018-11-10T09:25:27.569Z,38.67
2018-11-10T09:28:07.141Z,37.75
2018-11-10T09:31:02.630Z,36.33
2018-11-10T09:36:42.223Z,33.00
2018-11-10T09:42:05.477Z,37.00
2018-11-10T09:44:43.057Z,34.00
2018-11-10T09:47:17.605Z,33.67
2018-11-10T09:49:57.781Z,35.33
2018-11-10T09:52:32.515Z,34.00
2018-11-10T09:55:04.453Z,31.67
2018-11-10T09:57:43.707Z,31.00
2018-11-10T10:00:25.284Z,36.00
2018-11-10T10:03:01.801Z,33.00
2018-11-10T10:05:41.755Z,35.33
2018-11-10T10:08:14.244Z,29.00
2018-11-10T10:10:47.304Z,38.00
2018-11-10T10:13:21.084Z,33.75
2018-11-10T10:18:34.485Z,34.00
2018-11-10T10:21:15.777Z,34.33
2018-11-10T10:23:49.124Z,28.33
2018-11-10T10:26:25.833Z,27.33
2018-11-10T10:28:58.213Z,30.00
2018-11-10T10:31:36.596Z,36.33
2018-11-10T10:34:20.275Z,33.33
2018-11-10T10:36:54.300Z,33.33
2018-11-10T10:39:30.065Z,30.00
2018-11-10T10:42:05.321Z,37.33
2018-11-10T10:47:31.396Z,34.00
2018-11-10T10:50:18.475Z,34.25
2018-11-10T10:52:55.418Z,34.00
2018-11-10T10:55:27.629Z,29.75
2018-11-10T10:57:57.283Z,32.67
2018-11-10T11:00:36.753Z,31.00
2018-11-10T11:03:13.580Z,29.33
2018-11-10T11:05:55.256Z,31.33
2018-11-10T11:08:28.925Z,33.33
2018-11-10T11:11:07.428Z,27.00
2018-11-10T11:13:45.258Z,29.33
2018-11-10T11:16:20.024Z,36.00
2018-11-10T11:18:55.284Z,28.00
2018-11-10T11:21:31.839Z,32.00
2018-11-10T11:24:05.721Z,35.25
2018-11-10T11:26:42.318Z,34.67
2018-11-10T11:31:55.132Z,34.50
2018-11-10T11:34:31.197Z,33.67
2018-11-10T11:37:04.431Z,34.25
2018-11-10T11:39:39.884Z,35.25
2018-11-10T11:42:19.417Z,38.75
2018-11-10T11:44:53.376Z,30.33
2018-11-10T11:47:29.217Z,28.75
2018-11-10T11:50:00.695Z,29.67
2018-11-10T11:52:35.740Z,37.50
2018-11-10T11:55:18.272Z,33.33
2018-11-10T11:57:55.073Z,30.00
2018-11-10T12:00:30.290Z,34.67
2018-11-10T12:03:03.702Z,31.00
2018-11-10T12:05:38.235Z,29.67
2018-11-10T12:10:48.277Z,32.67
2018-11-10T12:13:23.317Z,31.33
2018-11-10T12:15:56.738Z,33.67
2018-11-10T12:18:29.288Z,31.33
2018-11-10T12:21:08.710Z,29.00
2018-11-10T12:23:46.634Z,27.00
2018-11-10T12:26:21.875Z,30.00
2018-11-10T12:28:58.346Z,30.67
2018-11-10T12:31:36.355Z,31.33
2018-11-10T12:34:15.228Z,29.00
2018-11-10T12:36:55.360Z,31.00
2018-11-10T12:39:31.220Z,32.00
2018-11-10T12:42:03.288Z,27.33
2018-11-10T12:44:43.600Z,28.67
2018-11-10T12:47:19.361Z,26.33
2018-11-10T12:49:55.235Z,31.00
2018-11-10T12:52:32.533Z,32.00
2018-11-10T12:55:05.608Z,33.33
2018-11-10T12:57:37.800Z,30.00
2018-11-10T13:00:13.339Z,28.00
2018-11-10T13:02:48.380Z,32.50
2018-11-10T13:05:24.417Z,32.67
2018-11-10T13:08:00.213Z,27.00
2018-11-10T13:10:36.281Z,31.00
2018-11-10T13:13:19.930Z,31.33
2018-11-10T13:15:57.158Z,32.33
2018-11-10T13:21:42.532Z,31.33
2018-11-10T13:24:18.067Z,27.33
2018-11-10T13:26:56.259Z,30.00
2018-11-10T13:29:38.269Z,28.67
2018-11-10T13:32:14.523Z,31.00
2018-11-10T13:34:53.807Z,29.67
2018-11-10T13:37:36.484Z,29.00
2018-11-10T13:40:16.372Z,34.00
2018-11-10T13:42:50.713Z,26.33
2018-11-10T13:45:25.450Z,29.33
2018-11-10T13:47:59.304Z,23.33
2018-11-10T13:50:33.780Z,29.00
2018-11-10T13:56:04.833Z,26.00
2018-11-10T13:59:14.545Z,29.00
2018-11-10T14:01:46.469Z,28.00
2018-11-10T14:04:26.224Z,28.67
2018-11-10T14:07:04.276Z,27.00
2018-11-10T14:09:38.236Z,25.67
2018-11-10T14:12:14.966Z,29.33
2018-11-10T14:15:02.637Z,27.33
2018-11-10T14:17:39.823Z,30.33
2018-11-10T14:20:20.121Z,29.00
2018-11-10T14:22:58.361Z,29.67
2018-11-10T14:25:32.999Z,27.33
2018-11-10T14:28:09.230Z,27.75
2018-11-10T14:33:28.336Z,28.00
2018-11-10T14:36:03.731Z,26.67
2018-11-10T14:38:42.361Z,27.33
2018-11-10T14:41:28.295Z,28.67
2018-11-10T14:44:03.133Z,28.67
2018-11-10T14:46:41.175Z,25.00
2018-11-10T14:49:15.749Z,24.00
2018-11-10T14:51:49.638Z,27.67
2018-11-10T14:54:27.534Z,28.33
2018-11-10T14:57:03.288Z,24.00
2018-11-10T14:59:41.695Z,32.75
2018-11-10T15:02:16.376Z,28.33
2018-11-10T15:04:50.792Z,27.33
2018-11-10T15:07:25.189Z,27.00
2018-11-10T15:09:56.434Z,30.33
2018-11-10T15:12:33.513Z,29.00
2018-11-10T15:15:06.529Z,31.33
2018-11-10T15:17:49.452Z,26.00
2018-11-10T15:20:23.266Z,28.33
2018-11-10T15:22:59.322Z,29.67
2018-11-10T15:25:41.130Z,28.67
2018-11-10T15:32:59.888Z,27.33
2018-11-10T15:35:35.898Z,25.00
2018-11-10T15:38:17.406Z,22.33
2018-11-10T15:40:49.633Z,23.33
2018-11-10T15:43:46.718Z,22.67
2018-11-10T15:46:22.833Z,22.67
2018-11-10T15:49:01.015Z,19.00
2018-11-10T15:51:40.677Z,20.33
2018-11-10T15:54:15.756Z,22.00
2018-11-10T15:56:54.276Z,21.00
2018-11-10T15:59:28.565Z,24.67
2018-11-10T16:02:10.690Z,23.33
2018-11-10T16:04:46.297Z,20.67
2018-11-10T16:07:21.379Z,21.00
2018-11-10T16:09:59.995Z,18.00
2018-11-10T16:12:35.885Z,17.67
2018-11-10T16:15:18.345Z,18.00
2018-11-10T16:17:56.948Z,18.00
2018-11-10T16:20:36.171Z,15.67
2018-11-10T16:23:13.382Z,17.33
2018-11-10T16:25:52.471Z,16.67
2018-11-10T16:28:29.172Z,14.33
2018-11-10T16:31:03.415Z,13.33
2018-11-10T16:33:42.286Z,18.67
2018-11-10T16:36:22.327Z,17.00
2018-11-10T16:39:03.416Z,15.00
2018-11-10T16:41:42.635Z,15.67
2018-11-10T16:44:23.260Z,18.00
2018-11-10T16:46:56.590Z,16.00
2018-11-10T16:49:30.400Z,16.00
2018-11-10T16:52:04.583Z,15.00
2018-11-10T16:54:42.134Z,17.33
2018-11-10T16:57:13.516Z,16.67
2018-11-10T16:59:54.525Z,14.67
2018-11-10T17:02:29.345Z,14.00
2018-11-10T17:05:09.197Z,14.67
2018-11-10T17:07:42.530Z,12.33
2018-11-10T17:10:22.585Z,14.33
2018-11-10T17:12:58.939Z,16.00
2018-11-10T17:18:13.001Z,12.00
2018-11-10T17:20:51.417Z,13.00
2018-11-10T17:23:23.893Z,10.67
2018-11-10T17:25:59.198Z,12.00
2018-11-10T17:28:38.105Z,17.33
2018-11-10T17:31:14.249Z,18.00
2018-11-10T17:33:48.533Z,25.67
2018-11-10T17:36:22.054Z,12.33
2018-11-10T17:38:52.472Z,14.67
2018-11-10T17:41:23.561Z,22.33
2018-11-10T17:43:53.022Z,25.33
2018-11-10T17:46:28.527Z,13.00
2018-11-10T17:49:03.498Z,14.33
2018-11-10T17:51:47.656Z,16.33
2018-11-10T17:54:28.127Z,13.67
2018-11-10T17:57:06.884Z,14.67
2018-11-10T17:59:41.781Z,16.00
2018-11-10T18:02:22.162Z,13.67
2018-11-10T18:04:59.372Z,13.33
2018-11-10T18:07:39.389Z,13.00
2018-11-10T18:10:18.525Z,11.00
2018-11-10T18:12:53.757Z,14.00
2018-11-10T18:15:29.642Z,11.00
2018-11-10T18:18:05.476Z,12.67
2018-11-10T18:20:43.645Z,13.67
2018-11-10T18:23:25.153Z,20.67
2018-11-10T18:25:57.471Z,19.67
2018-11-10T18:28:36.300Z,20.33
2018-11-10T18:31:09.787Z,18.33
2018-11-10T18:33:42.556Z,21.67
2018-11-10T18:36:15.273Z,23.00
2018-11-10T18:38:57.536Z,19.33
2018-11-10T18:41:40.417Z,20.33
2018-11-10T18:44:19.971Z,20.00
2018-11-10T18:47:00.595Z,15.33
2018-11-10T18:52:14.591Z,14.67
2018-11-10T18:54:53.095Z,19.67
2018-11-10T18:57:31.536Z,17.33
2018-11-10T19:00:05.263Z,17.33
2018-11-10T19:02:38.673Z,16.67
2018-11-10T19:05:16.754Z,17.00
2018-11-10T19:07:55.253Z,20.00
2018-11-10T19:10:33.268Z,17.00
2018-11-10T19:13:11.210Z,12.67
2018-11-10T19:15:51.221Z,14.00
2018-11-10T19:18:25.365Z,15.33
2018-11-10T19:21:03.949Z,23.33
2018-11-10T19:23:39.706Z,23.67
2018-11-10T19:26:13.597Z,18.00
2018-11-10T19:28:46.651Z,16.00
2018-11-10T19:31:20.846Z,13.00
2018-11-10T19:33:52.776Z,16.00
2018-11-10T19:36:22.440Z,21.33
2018-11-10T19:38:52.497Z,17.67
2018-11-10T19:41:24.821Z,16.33
2018-11-10T19:43:58.552Z,13.67
2018-11-10T19:46:33.512Z,19.00
2018-11-10T19:49:15.016Z,16.00
2018-11-10T19:51:50.500Z,14.67
2018-11-10T19:54:27.149Z,16.67
2018-11-10T19:59:45.540Z,11.33
2018-11-10T20:02:22.043Z,9.00
2018-11-10T20:04:58.773Z,10.00
2018-11-10T20:07:38.189Z,10.00
2018-11-10T20:10:23.688Z,12.00
2018-11-10T20:13:00.076Z,9.33
2018-11-10T20:15:35.270Z,9.00
2018-11-10T20:18:08.483Z,11.33
2018-11-10T20:20:43.904Z,12.67
2018-11-10T20:23:18.801Z,12.25
2018-11-10T20:25:54.408Z,10.00
2018-11-10T20:28:32.818Z,14.00
2018-11-10T20:31:10.004Z,9.33
2018-11-10T20:33:45.156Z,11.33
2018-11-10T20:36:22.488Z,10.67
2018-11-10T20:39:02.751Z,12.67
2018-11-10T20:41:39.417Z,10.25
2018-11-10T20:44:13.988Z,11.33
2018-11-10T20:46:48.184Z,10.33
2018-11-10T20:49:25.403Z,10.00
2018-11-10T20:54:47.566Z,9.00
2018-11-10T20:57:21.751Z,7.00
2018-11-10T21:00:00.369Z,7.00
2018-11-10T21:02:37.212Z,10.00
2018-11-10T21:05:12.358Z,6.80
2018-11-10T21:08:35.274Z,6.67
2018-11-10T21:11:16.555Z,7.67
2018-11-10T21:13:53.688Z,7.00
2018-11-10T21:16:32.593Z,9.00
2018-11-10T21:19:09.447Z,7.00
2018-11-10T21:21:44.873Z,9.00
2018-11-10T21:24:23.129Z,6.67
2018-11-10T21:27:00.048Z,7.00
2018-11-10T21:29:35.489Z,7.00
2018-11-10T21:32:13.425Z,6.40
2018-11-10T21:34:48.680Z,6.40
2018-11-10T21:37:29.228Z,9.00
2018-11-10T21:40:05.361Z,7.00
2018-11-10T21:42:45.611Z,8.60
2018-11-10T21:45:25.189Z,7.80
2018-11-10T21:48:03.604Z,6.00
2018-11-10T21:53:20.680Z,6.00
2018-11-10T21:56:02.590Z,6.80
2018-11-10T21:58:42.900Z,6.60
2018-11-10T22:01:23.217Z,6.00
2018-11-10T22:03:59.221Z,6.60
2018-11-10T22:06:39.925Z,6.00
2018-11-10T22:09:18.826Z,6.80
2018-11-10T22:11:54.784Z,4.00
2018-11-10T22:14:31.481Z,6.00
2018-11-10T22:17:07.316Z,7.00
2018-11-10T22:19:48.840Z,6.60
2018-11-10T22:22:30.955Z,6.20
2018-11-10T22:25:07.731Z,7.80
2018-11-10T22:27:44.326Z,6.00
2018-11-10T22:30:19.242Z,6.80
2018-11-10T22:32:55.264Z,6.40
2018-11-10T22:35:36.158Z,6.20
2018-11-10T22:38:13.302Z,7.00
2018-11-10T22:40:47.211Z,7.40
2018-11-10T22:43:26.559Z,7.00
2018-11-10T22:48:45.752Z,9.00
2018-11-10T22:51:22.660Z,6.60
2018-11-10T22:53:58.672Z,7.00
2018-11-10T22:56:33.013Z,9.00
2018-11-10T22:59:14.317Z,9.00
2018-11-10T23:01:49.145Z,10.00
2018-11-10T23:04:29.931Z,9.00
2018-11-10T23:07:05.170Z,10.67
2018-11-10T23:09:43.804Z,10.00
2018-11-10T23:12:20.388Z,9.67
2018-11-10T23:14:56.133Z,10.00
2018-11-10T23:17:30.918Z,12.00
2018-11-10T23:20:12.459Z,12.00
2018-11-10T23:22:47.877Z,10.50
2018-11-10T23:25:25.854Z,11.67
2018-11-10T23:28:03.677Z,11.00
2018-11-10T23:30:38.271Z,11.33
2018-11-10T23:33:12.876Z,13.67
2018-11-10T23:35:46.481Z,14.00
2018-11-10T23:38:21.334Z,16.00
2018-11-10T23:40:56.817Z,14.67
2018-11-10T23:43:30.393Z,15.33
2018-11-10T23:46:05.810Z,14.00
2018-11-10T23:48:40.554Z,17.33
2018-11-10T23:51:18.939Z,16.00
2018-11-10T23:53:52.408Z,19.00
2018-11-10T23:56:25.920Z,18.67
2018-11-10T23:58:59.649Z,14.00
